Time;durP1;ratioP1;P1;durP2;ratioP2;P2;SDS_P1;SDS_P2;PMS_P1;PMS_P2;Temp;Humidity;BMP_temperature;BMP_pressure;BME280_temperature;BME280_humidity;BME280_pressure;Samples;Min_cycle;Max_cycle;Signal;HPM_P1;HPM_P2
2023/10/07 00:01:58;;;;;;;3.90;2.60;;;;;;;;;;5114744;28;20544;-65
2023/10/07 00:04:26;;;;;;;4.50;2.27;;;;;;;;;;5114595;28;20491;-64
2023/10/07 00:06:53;;;;;;;2.73;2.30;;;;;;;;;;5114806;28;20538;-64
2023/10/07 00:09:22;;;;;;;4.43;2.83;;;;;;;;;;5114776;28;20446;-65
2023/10/07 00:11:49;;;;;;;2.83;2.63;;;;;;;;;;5114807;28;20485;-65
2023/10/07 00:14:16;;;;;;;3.50;2.20;;;;;;;;;;5114490;28;20532;-64
2023/10/07 00:16:46;;;;;;;3.40;2.40;;;;;;;;;;5114646;28;20442;-64
2023/10/07 00:19:13;;;;;;;3.37;2.70;;;;;;;;;;5114309;28;20464;-64
2023/10/07 00:21:58;;;;;;;4.13;2.47;;;;;;;;;;5114452;28;20446;-64
2023/10/07 00:24:26;;;;;;;3.20;2.60;;;;;;;;;;5114430;28;20446;-64
2023/10/07 00:26:53;;;;;;;8.23;3.17;;;;;;;;;;5114278;28;20490;-64
2023/10/07 00:29:23;;;;;;;3.37;2.47;;;;;;;;;;5113979;28;21007;-64
2023/10/07 00:31:52;;;;;;;6.43;2.80;;;;;;;;;;5113995;28;20528;-64
2023/10/07 00:34:26;;;;;;;4.80;2.70;;;;;;;;;;5114493;28;20476;-65
2023/10/07 00:36:57;;;;;;;5.70;3.33;;;;;;;;;;5114212;28;20441;-64
2023/10/07 00:39:31;;;;;;;3.40;2.80;;;;;;;;;;5114105;28;20502;-64
2023/10/07 00:41:59;;;;;;;4.53;2.63;;;;;;;;;;5113985;28;20450;-64
2023/10/07 00:44:31;;;;;;;3.43;2.40;;;;;;;;;;5114205;28;20495;-64
2023/10/07 00:47:12;;;;;;;3.57;2.47;;;;;;;;;;5114040;28;20839;-64
2023/10/07 00:49:41;;;;;;;3.80;2.30;;;;;;;;;;5113880;28;20442;-64
2023/10/07 00:52:23;;;;;;;4.57;2.63;;;;;;;;;;5113794;28;20478;-64
2023/10/07 00:54:57;;;;;;;6.27;2.60;;;;;;;;;;5113397;28;20457;-64
2023/10/07 00:57:29;;;;;;;4.90;2.40;;;;;;;;;;5113916;28;20831;-64
2023/10/07 00:59:57;;;;;;;5.00;3.03;;;;;;;;;;5113844;28;20449;-64
2023/10/07 01:02:30;;;;;;;4.13;2.90;;;;;;;;;;5113673;28;20484;-64
2023/10/07 01:05:00;;;;;;;4.80;3.00;;;;;;;;;;5113579;28;20491;-65
2023/10/07 01:07:31;;;;;;;7.87;3.70;;;;;;;;;;5114035;28;20455;-64
2023/10/07 01:10:12;;;;;;;3.40;2.00;;;;;;;;;;5113697;28;20499;-64
2023/10/07 01:12:42;;;;;;;3.83;2.80;;;;;;;;;;5113438;28;21019;-64
2023/10/07 01:15:17;;;;;;;3.27;2.70;;;;;;;;;;5113428;28;20441;-64
2023/10/07 01:17:45;;;;;;;5.27;2.77;;;;;;;;;;5113743;28;20445;-64
2023/10/07 01:20:13;;;;;;;2.73;2.50;;;;;;;;;;5113498;28;20452;-64
2023/10/07 01:23:02;;;;;;;4.90;3.27;;;;;;;;;;5113481;28;20445;-66
2023/10/07 01:25:30;;;;;;;3.43;2.50;;;;;;;;;;5113389;28;20442;-64
2023/10/07 01:28:01;;;;;;;3.40;2.50;;;;;;;;;;5113071;28;20793;-64
2023/10/07 01:30:29;;;;;;;3.93;2.80;;;;;;;;;;5113375;28;20473;-64
2023/10/07 01:33:02;;;;;;;4.57;2.40;;;;;;;;;;5113389;28;20798;-64
2023/10/07 01:35:32;;;;;;;4.43;3.00;;;;;;;;;;5113282;28;20445;-64
2023/10/07 01:38:06;;;;;;;2.70;2.50;;;;;;;;;;5113297;28;20446;-64
2023/10/07 01:40:41;;;;;;;6.47;2.47;;;;;;;;;;5113116;28;20452;-64
2023/10/07 01:43:08;;;;;;;3.60;2.60;;;;;;;;;;5112886;28;20978;-64
2023/10/07 01:45:39;;;;;;;3.97;3.17;;;;;;;;;;5113292;28;20528;-64
2023/10/07 01:48:08;;;;;;;3.73;2.60;;;;;;;;;;5113218;28;20452;-64
2023/10/07 01:50:38;;;;;;;4.17;2.50;;;;;;;;;;5113026;28;20581;-64
2023/10/07 01:53:07;;;;;;;4.07;2.50;;;;;;;;;;5113259;28;20793;-64
2023/10/07 01:55:36;;;;;;;5.77;3.10;;;;;;;;;;5113275;28;20445;-64
2023/10/07 01:58:04;;;;;;;3.20;2.57;;;;;;;;;;5113172;28;20446;-64
2023/10/07 02:00:43;;;;;;;4.87;2.50;;;;;;;;;;5112996;28;20446;-65
2023/10/07 02:03:13;;;;;;;3.13;2.43;;;;;;;;;;5112979;28;20483;-64
2023/10/07 02:05:40;;;;;;;3.27;2.70;;;;;;;;;;5113623;28;20442;-64
2023/10/07 02:08:12;;;;;;;3.20;2.33;;;;;;;;;;5117094;28;20449;-64
2023/10/07 02:10:40;;;;;;;4.60;2.60;;;;;;;;;;5116953;28;20560;-64
2023/10/07 02:13:08;;;;;;;5.73;2.67;;;;;;;;;;5116905;28;20442;-64
2023/10/07 02:15:37;;;;;;;7.63;2.47;;;;;;;;;;5116842;28;20452;-64
2023/10/07 02:18:05;;;;;;;4.33;2.57;;;;;;;;;;5116674;28;20899;-64
2023/10/07 02:20:38;;;;;;;6.03;2.50;;;;;;;;;;5116847;28;20544;-64
2023/10/07 02:23:12;;;;;;;4.53;2.50;;;;;;;;;;5116804;28;20797;-64
2023/10/07 02:25:49;;;;;;;3.27;2.70;;;;;;;;;;5116641;28;20524;-64
2023/10/07 02:28:16;;;;;;;5.30;2.90;;;;;;;;;;5116358;28;20534;-64
2023/10/07 02:30:51;;;;;;;4.80;2.53;;;;;;;;;;5116584;28;20469;-64
2023/10/07 02:33:21;;;;;;;5.03;2.90;;;;;;;;;;5116658;28;20777;-64
2023/10/07 02:35:54;;;;;;;3.20;2.70;;;;;;;;;;5116281;28;20452;-65
2023/10/07 02:38:25;;;;;;;3.23;2.30;;;;;;;;;;5116429;28;20544;-65
2023/10/07 02:40:58;;;;;;;2.80;2.47;;;;;;;;;;5116211;28;20446;-64
2023/10/07 02:43:27;;;;;;;7.40;3.00;;;;;;;;;;5116359;28;20446;-64
2023/10/07 02:45:59;;;;;;;5.10;2.90;;;;;;;;;;5116284;28;20441;-64
2023/10/07 02:48:27;;;;;;;5.87;2.70;;;;;;;;;;5116218;28;20495;-64
2023/10/07 02:50:54;;;;;;;3.40;2.87;;;;;;;;;;5116064;28;20469;-64
2023/10/07 02:53:21;;;;;;;5.20;2.60;;;;;;;;;;5115962;28;20441;-64
2023/10/07 02:55:54;;;;;;;4.63;2.67;;;;;;;;;;5116277;28;20470;-64
2023/10/07 02:58:32;;;;;;;4.60;2.50;;;;;;;;;;5116112;28;20547;-64
2023/10/07 03:01:10;;;;;;;4.43;2.53;;;;;;;;;;5116113;28;20445;-64
2023/10/07 03:03:38;;;;;;;5.40;3.10;;;;;;;;;;5115852;28;20505;-65
2023/10/07 03:06:07;;;;;;;4.60;2.53;;;;;;;;;;5116094;28;20445;-64
2023/10/07 03:08:43;;;;;;;3.40;2.70;;;;;;;;;;5115943;28;20438;-64
2023/10/07 03:11:11;;;;;;;4.83;3.20;;;;;;;;;;5115833;28;20514;-64
2023/10/07 03:13:40;;;;;;;5.63;3.40;;;;;;;;;;5116139;28;20819;-64
2023/10/07 03:16:27;;;;;;;3.27;2.80;;;;;;;;;;5115523;28;20802;-64
2023/10/07 03:19:06;;;;;;;6.53;3.20;;;;;;;;;;5115823;28;20437;-65
2023/10/07 03:21:54;;;;;;;4.83;3.30;;;;;;;;;;5115647;28;20437;-64
2023/10/07 03:24:32;;;;;;;6.97;3.80;;;;;;;;;;5115485;28;20442;-64
2023/10/07 03:27:10;;;;;;;3.93;2.80;;;;;;;;;;5115703;28;20442;-64
2023/10/07 03:29:39;;;;;;;3.90;3.10;;;;;;;;;;5115392;27;20473;-64
2023/10/07 03:32:12;;;;;;;6.93;3.47;;;;;;;;;;5115321;28;20485;-64
2023/10/07 03:34:40;;;;;;;6.17;3.90;;;;;;;;;;5115271;28;20503;-64
2023/10/07 03:37:15;;;;;;;5.47;2.93;;;;;;;;;;5115174;28;20448;-64
2023/10/07 03:40:17;;;;;;;8.87;2.90;;;;;;;;;;5115410;28;20498;-64
2023/10/07 03:42:45;;;;;;;5.17;3.50;;;;;;;;;;5114946;28;20456;-64
2023/10/07 03:45:14;;;;;;;4.00;2.60;;;;;;;;;;5115027;28;20456;-64
2023/10/07 03:47:46;;;;;;;3.90;2.80;;;;;;;;;;5114914;28;20448;-64
2023/10/07 03:50:29;;;;;;;6.00;2.77;;;;;;;;;;5115229;28;20437;-64
2023/10/07 03:52:58;;;;;;;5.93;2.93;;;;;;;;;;5114925;28;20564;-64
2023/10/07 03:55:27;;;;;;;5.80;3.53;;;;;;;;;;5114816;28;20490;-64
2023/10/07 03:57:54;;;;;;;4.47;3.60;;;;;;;;;;5114678;28;20442;-64
2023/10/07 04:00:28;;;;;;;9.30;3.80;;;;;;;;;;5114982;28;20499;-64
2023/10/07 04:03:01;;;;;;;5.40;3.40;;;;;;;;;;5114766;28;20544;-64
2023/10/07 04:05:32;;;;;;;6.20;2.70;;;;;;;;;;5114755;28;20452;-64
2023/10/07 04:08:00;;;;;;;3.03;2.70;;;;;;;;;;5114639;28;20448;-64
2023/10/07 04:10:36;;;;;;;4.07;2.87;;;;;;;;;;5114415;28;20469;-64
2023/10/07 04:13:07;;;;;;;5.03;3.30;;;;;;;;;;5114537;28;20576;-64
2023/10/07 04:15:44;;;;;;;6.50;2.97;;;;;;;;;;5114533;28;20782;-64
2023/10/07 04:18:17;;;;;;;6.40;3.30;;;;;;;;;;5114505;28;20537;-64
2023/10/07 04:20:56;;;;;;;5.90;2.40;;;;;;;;;;5114763;28;20452;-64
2023/10/07 04:23:25;;;;;;;4.80;2.77;;;;;;;;;;5114465;28;20516;-64
2023/10/07 04:25:55;;;;;;;3.50;2.90;;;;;;;;;;5114375;28;20446;-64
2023/10/07 04:28:22;;;;;;;4.87;3.07;;;;;;;;;;5113508;28;20465;-64
2023/10/07 04:30:53;;;;;;;3.83;3.00;;;;;;;;;;5114148;28;20529;-64
2023/10/07 04:33:25;;;;;;;6.30;3.67;;;;;;;;;;5113979;28;20925;-64
2023/10/07 04:36:00;;;;;;;5.00;2.93;;;;;;;;;;5114304;28;20533;-64
2023/10/07 04:38:52;;;;;;;3.27;2.97;;;;;;;;;;5114145;28;20445;-65
2023/10/07 04:41:31;;;;;;;12.57;3.57;;;;;;;;;;5113936;28;20449;-64
2023/10/07 04:44:20;;;;;;;5.53;3.60;;;;;;;;;;5113890;28;20641;-64
2023/10/07 04:46:56;;;;;;;5.53;3.07;;;;;;;;;;5113703;28;20441;-64
2023/10/07 04:49:26;;;;;;;5.73;3.20;;;;;;;;;;5113769;28;21065;-64
2023/10/07 04:51:58;;;;;;;4.43;2.83;;;;;;;;;;5113556;28;20972;-66
2023/10/07 04:54:25;;;;;;;5.67;3.43;;;;;;;;;;5114016;28;20457;-64
2023/10/07 04:57:00;;;;;;;7.50;4.50;;;;;;;;;;5113989;28;20452;-64
2023/10/07 04:59:27;;;;;;;5.97;2.77;;;;;;;;;;5113688;28;20453;-64
2023/10/07 05:02:02;;;;;;;4.17;2.60;;;;;;;;;;5113560;28;20544;-64
2023/10/07 05:04:28;;;;;;;8.83;4.13;;;;;;;;;;5113576;28;20445;-64
2023/10/07 05:06:55;;;;;;;4.23;3.13;;;;;;;;;;5113728;28;20515;-64
2023/10/07 05:09:23;;;;;;;4.77;3.07;;;;;;;;;;5113647;28;20540;-64
2023/10/07 05:11:50;;;;;;;7.80;2.80;;;;;;;;;;5113431;28;20877;-64
2023/10/07 05:14:17;;;;;;;4.53;2.97;;;;;;;;;;5113502;28;20467;-66
2023/10/07 05:16:46;;;;;;;7.80;3.00;;;;;;;;;;5113381;28;20537;-64
2023/10/07 05:19:19;;;;;;;3.80;2.73;;;;;;;;;;5113304;28;20502;-64
2023/10/07 05:21:46;;;;;;;3.13;2.83;;;;;;;;;;5113537;28;20441;-64
2023/10/07 05:24:17;;;;;;;4.63;3.00;;;;;;;;;;5113449;28;20877;-64
2023/10/07 05:26:44;;;;;;;4.33;3.67;;;;;;;;;;5113444;28;20455;-64
2023/10/07 05:29:12;;;;;;;4.53;3.57;;;;;;;;;;5113120;28;20565;-64
2023/10/07 05:31:39;;;;;;;5.03;3.10;;;;;;;;;;5113081;28;20640;-64
2023/10/07 05:34:08;;;;;;;9.20;3.50;;;;;;;;;;5113357;28;20851;-64
2023/10/07 05:36:38;;;;;;;4.67;3.57;;;;;;;;;;5113311;28;20450;-64
2023/10/07 05:39:07;;;;;;;3.30;3.00;;;;;;;;;;5113238;28;20446;-64
2023/10/07 05:41:39;;;;;;;3.87;3.10;;;;;;;;;;5115211;28;20449;-63
2023/10/07 05:44:06;;;;;;;5.63;2.93;;;;;;;;;;5117298;28;20441;-64
2023/10/07 05:46:35;;;;;;;3.40;3.10;;;;;;;;;;5117238;28;20977;-64
2023/10/07 05:49:02;;;;;;;5.57;3.30;;;;;;;;;;5117341;28;20442;-64
2023/10/07 05:51:29;;;;;;;7.23;3.23;;;;;;;;;;5117190;28;20476;-64
2023/10/07 05:53:58;;;;;;;6.40;3.27;;;;;;;;;;5117309;28;20981;-64
2023/10/07 05:56:25;;;;;;;3.77;3.17;;;;;;;;;;5117161;28;20446;-64
2023/10/07 05:58:54;;;;;;;4.83;3.50;;;;;;;;;;5117021;28;20446;-64
2023/10/07 06:01:21;;;;;;;4.10;2.70;;;;;;;;;;5117133;28;20854;-64
2023/10/07 06:03:48;;;;;;;3.03;2.83;;;;;;;;;;5117155;28;20441;-65
2023/10/07 06:06:16;;;;;;;4.77;3.40;;;;;;;;;;5116949;28;20448;-64
2023/10/07 06:08:43;;;;;;;5.30;3.23;;;;;;;;;;5116981;28;20541;-64
2023/10/07 06:11:11;;;;;;;4.93;2.70;;;;;;;;;;5116845;28;20528;-64
2023/10/07 06:13:40;;;;;;;3.43;2.80;;;;;;;;;;5116968;28;20477;-64
2023/10/07 06:16:07;;;;;;;5.77;3.03;;;;;;;;;;5117011;28;20534;-64
2023/10/07 06:18:34;;;;;;;4.13;3.20;;;;;;;;;;5116804;28;20446;-64
2023/10/07 06:21:19;;;;;;;3.20;2.87;;;;;;;;;;5116753;28;20445;-64
2023/10/07 06:23:47;;;;;;;5.87;3.10;;;;;;;;;;5116611;28;20904;-64
2023/10/07 06:26:16;;;;;;;4.37;3.17;;;;;;;;;;5116739;28;20445;-64
2023/10/07 06:28:48;;;;;;;4.70;3.10;;;;;;;;;;5116468;28;20484;-64
2023/10/07 06:31:22;;;;;;;5.80;3.47;;;;;;;;;;5116576;28;20536;-64
2023/10/07 06:33:59;;;;;;;3.20;2.93;;;;;;;;;;5116497;28;20946;-64
2023/10/07 06:36:27;;;;;;;6.67;3.30;;;;;;;;;;5116616;28;20441;-64
2023/10/07 06:38:58;;;;;;;4.67;3.30;;;;;;;;;;5116553;28;20822;-64
2023/10/07 06:41:29;;;;;;;3.93;3.23;;;;;;;;;;5116441;28;20444;-64
2023/10/07 06:43:59;;;;;;;4.63;3.47;;;;;;;;;;5116340;28;20503;-64
2023/10/07 06:46:31;;;;;;;4.77;3.67;;;;;;;;;;5116200;28;20495;-64
2023/10/07 06:48:59;;;;;;;5.73;3.90;;;;;;;;;;5116460;28;20438;-64
2023/10/07 06:51:29;;;;;;;4.07;3.60;;;;;;;;;;5115547;28;20446;-64
2023/10/07 06:53:58;;;;;;;9.03;4.47;;;;;;;;;;5116253;28;20441;-64
2023/10/07 06:56:27;;;;;;;7.80;3.70;;;;;;;;;;5115970;28;20999;-64
2023/10/07 06:58:54;;;;;;;5.20;3.80;;;;;;;;;;5115967;28;20437;-64
2023/10/07 07:01:35;;;;;;;5.93;3.70;;;;;;;;;;5115882;28;20448;-64
2023/10/07 07:04:09;;;;;;;6.70;4.40;;;;;;;;;;5115848;28;20944;-64
2023/10/07 07:06:42;;;;;;;7.63;4.63;;;;;;;;;;5115994;28;20445;-64
2023/10/07 07:09:41;;;;;;;5.97;5.10;;;;;;;;;;5115815;28;20441;-64
2023/10/07 07:11:58;;;;;;;6.60;5.03;;;;;;;;;;5115543;28;20464;-64
2023/10/07 07:14:28;;;;;;;5.43;4.93;;;;;;;;;;5115787;28;20445;-64
2023/10/07 07:16:56;;;;;;;6.40;4.50;;;;;;;;;;5115700;28;20446;-64
2023/10/07 07:19:23;;;;;;;5.00;4.50;;;;;;;;;;5115706;28;20453;-64
2023/10/07 07:21:49;;;;;;;5.23;4.83;;;;;;;;;;5115579;28;20441;-64
2023/10/07 07:24:21;;;;;;;5.00;4.40;;;;;;;;;;5115351;28;20461;-64
2023/10/07 07:26:51;;;;;;;9.10;5.20;;;;;;;;;;5115658;28;20481;-64
2023/10/07 07:29:23;;;;;;;6.47;5.10;;;;;;;;;;5115250;28;20469;-64
2023/10/07 07:31:50;;;;;;;5.40;4.80;;;;;;;;;;5115444;28;20529;-64
2023/10/07 07:34:24;;;;;;;7.17;4.20;;;;;;;;;;5115289;28;20441;-64
2023/10/07 07:37:02;;;;;;;5.80;4.30;;;;;;;;;;5115367;28;20452;-64
2023/10/07 07:39:30;;;;;;;6.13;4.40;;;;;;;;;;5115270;28;20456;-64
2023/10/07 07:42:00;;;;;;;6.03;4.27;;;;;;;;;;5115244;28;20438;-64
2023/10/07 07:44:34;;;;;;;6.20;5.50;;;;;;;;;;5115197;28;20442;-64
2023/10/07 07:47:03;;;;;;;5.10;4.60;;;;;;;;;;5115011;28;20442;-65
2023/10/07 07:49:32;;;;;;;5.67;4.47;;;;;;;;;;5114934;28;20936;-64
2023/10/07 07:51:59;;;;;;;4.83;4.43;;;;;;;;;;5115030;28;20528;-64
2023/10/07 07:54:26;;;;;;;4.80;4.40;;;;;;;;;;5114876;28;20442;-64
2023/10/07 07:56:54;;;;;;;4.70;4.20;;;;;;;;;;5114880;28;20448;-64
2023/10/07 07:59:21;;;;;;;7.27;4.83;;;;;;;;;;5114870;28;20456;-64
2023/10/07 08:01:53;;;;;;;5.83;4.87;;;;;;;;;;5114731;28;20445;-64
2023/10/07 08:04:37;;;;;;;4.97;4.30;;;;;;;;;;5113816;28;20957;-65
2023/10/07 08:07:06;;;;;;;5.70;5.10;;;;;;;;;;5114770;28;20438;-64
2023/10/07 08:09:36;;;;;;;10.40;4.37;;;;;;;;;;5114655;28;20437;-64
2023/10/07 08:12:04;;;;;;;4.20;3.50;;;;;;;;;;5114722;28;20441;-64
2023/10/07 08:14:33;;;;;;;6.90;4.10;;;;;;;;;;5114466;28;20953;-64
2023/10/07 08:17:03;;;;;;;4.60;3.87;;;;;;;;;;5114585;28;20668;-64
2023/10/07 08:19:32;;;;;;;3.93;3.20;;;;;;;;;;5114414;28;20519;-64
2023/10/07 08:22:02;;;;;;;4.00;3.70;;;;;;;;;;5114447;28;20496;-64
2023/10/07 08:24:31;;;;;;;3.90;3.50;;;;;;;;;;5114329;28;20887;-64
2023/10/07 08:27:03;;;;;;;4.50;4.10;;;;;;;;;;5114513;28;20805;-64
2023/10/07 08:29:33;;;;;;;3.30;3.00;;;;;;;;;;5114126;28;20474;-64
2023/10/07 08:32:10;;;;;;;3.77;3.47;;;;;;;;;;5114143;28;20453;-64
2023/10/07 08:34:37;;;;;;;4.70;2.83;;;;;;;;;;5114179;28;20853;-64
2023/10/07 08:37:08;;;;;;;3.80;3.50;;;;;;;;;;5113989;28;20446;-64
2023/10/07 08:39:44;;;;;;;4.47;3.70;;;;;;;;;;5114008;28;20532;-64
2023/10/07 08:42:14;;;;;;;3.80;3.37;;;;;;;;;;5114206;28;20793;-64
2023/10/07 08:44:41;;;;;;;4.83;3.70;;;;;;;;;;5114011;28;20532;-64
2023/10/07 08:47:11;;;;;;;4.50;3.90;;;;;;;;;;5113892;28;20452;-64
2023/10/07 08:49:39;;;;;;;4.40;4.00;;;;;;;;;;5113936;28;20540;-64
2023/10/07 08:52:08;;;;;;;4.30;3.30;;;;;;;;;;5113895;28;20464;-64
2023/10/07 08:54:37;;;;;;;4.30;3.37;;;;;;;;;;5113861;28;20449;-65
2023/10/07 08:57:09;;;;;;;4.13;3.50;;;;;;;;;;5113809;28;20452;-64
2023/10/07 08:59:38;;;;;;;4.97;3.60;;;;;;;;;;5113720;28;20473;-64
2023/10/07 09:02:05;;;;;;;4.60;3.43;;;;;;;;;;5113635;28;20477;-64
2023/10/07 09:04:33;;;;;;;4.80;3.33;;;;;;;;;;5113750;28;20446;-64
2023/10/07 09:07:08;;;;;;;4.37;3.90;;;;;;;;;;5113908;28;21000;-64
2023/10/07 09:09:38;;;;;;;5.70;4.00;;;;;;;;;;5113590;28;20467;-64
2023/10/07 09:12:11;;;;;;;4.20;3.80;;;;;;;;;;5113522;28;20928;-64
2023/10/07 09:14:45;;;;;;;3.50;3.20;;;;;;;;;;5113189;28;20454;-64
2023/10/07 09:17:13;;;;;;;4.10;3.80;;;;;;;;;;5113754;28;20441;-64
2023/10/07 09:19:45;;;;;;;6.67;4.10;;;;;;;;;;5113491;28;20487;-64
2023/10/07 09:22:14;;;;;;;6.50;3.77;;;;;;;;;;5113484;28;20442;-64
2023/10/07 09:24:45;;;;;;;4.07;3.57;;;;;;;;;;5113381;28;20449;-64
2023/10/07 09:27:13;;;;;;;6.80;3.37;;;;;;;;;;5113332;28;20482;-64
2023/10/07 09:29:44;;;;;;;4.10;3.80;;;;;;;;;;5113182;28;20470;-64
2023/10/07 09:32:21;;;;;;;4.33;2.90;;;;;;;;;;5113477;28;20507;-64
2023/10/07 09:34:54;;;;;;;4.20;3.77;;;;;;;;;;5113338;28;20452;-64
2023/10/07 09:37:21;;;;;;;4.37;3.83;;;;;;;;;;5113256;28;20469;-64
2023/10/07 09:39:55;;;;;;;3.80;3.50;;;;;;;;;;5113320;28;20449;-64
2023/10/07 09:42:36;;;;;;;4.10;3.77;;;;;;;;;;5113442;28;20790;-64
2023/10/07 09:45:15;;;;;;;4.40;4.00;;;;;;;;;;5113390;28;20840;-64
2023/10/07 09:47:44;;;;;;;4.53;4.13;;;;;;;;;;5113167;28;20516;-64
2023/10/07 09:50:19;;;;;;;4.80;4.40;;;;;;;;;;5113038;28;20477;-64
2023/10/07 09:52:51;;;;;;;4.50;3.97;;;;;;;;;;5113197;28;20495;-64
2023/10/07 09:55:38;;;;;;;5.97;4.10;;;;;;;;;;5113541;28;20523;-64
2023/10/07 09:58:11;;;;;;;4.50;4.10;;;;;;;;;;5113080;28;20445;-64
2023/10/07 10:00:42;;;;;;;9.37;4.23;;;;;;;;;;5113162;28;20828;-64
2023/10/07 10:03:25;;;;;;;5.40;4.40;;;;;;;;;;5113378;28;20948;-64
2023/10/07 10:06:03;;;;;;;5.50;4.13;;;;;;;;;;5112849;28;21004;-60
2023/10/07 10:08:44;;;;;;;8.43;4.50;;;;;;;;;;5113040;28;20445;-58
2023/10/07 10:11:30;;;;;;;4.53;4.13;;;;;;;;;;5112937;28;20928;-57
2023/10/07 10:14:14;;;;;;;4.83;4.40;;;;;;;;;;5112906;28;20829;-58
2023/10/07 10:16:45;;;;;;;6.57;5.47;;;;;;;;;;5112905;28;20446;-58
2023/10/07 10:19:17;;;;;;;5.27;4.73;;;;;;;;;;5112958;28;20446;-58
2023/10/07 10:21:45;;;;;;;5.37;4.90;;;;;;;;;;5113095;28;20548;-58
2023/10/07 10:24:16;;;;;;;8.40;5.17;;;;;;;;;;5112949;28;20809;-58
2023/10/07 10:26:44;;;;;;;5.43;5.03;;;;;;;;;;5113253;28;20446;-58
2023/10/07 10:29:16;;;;;;;5.87;5.27;;;;;;;;;;5116426;28;20529;-58
2023/10/07 10:31:50;;;;;;;6.83;5.60;;;;;;;;;;5116525;28;20449;-58
2023/10/07 10:34:20;;;;;;;6.23;5.70;;;;;;;;;;5116539;28;20516;-58
2023/10/07 10:36:49;;;;;;;6.57;5.97;;;;;;;;;;5116527;28;20445;-58
2023/10/07 10:39:18;;;;;;;11.00;6.37;;;;;;;;;;5116537;28;20444;-58
2023/10/07 10:41:45;;;;;;;9.83;6.73;;;;;;;;;;5116216;28;20939;-58
2023/10/07 10:44:15;;;;;;;6.93;6.40;;;;;;;;;;5116322;28;20879;-58
2023/10/07 10:46:44;;;;;;;6.63;6.13;;;;;;;;;;5116497;28;20442;-58
2023/10/07 10:49:12;;;;;;;7.00;6.40;;;;;;;;;;5116263;28;20499;-58
2023/10/07 10:51:45;;;;;;;7.43;6.83;;;;;;;;;;5116286;28;20796;-58
2023/10/07 10:54:13;;;;;;;9.73;6.77;;;;;;;;;;5116193;28;20481;-58
2023/10/07 10:56:47;;;;;;;7.50;6.90;;;;;;;;;;5116039;28;20532;-58
2023/10/07 10:59:14;;;;;;;7.40;6.70;;;;;;;;;;5115999;28;20894;-58
2023/10/07 11:01:43;;;;;;;8.90;6.70;;;;;;;;;;5116149;28;20467;-58
2023/10/07 11:04:12;;;;;;;7.67;6.90;;;;;;;;;;5116035;28;20487;-58
2023/10/07 11:06:39;;;;;;;8.07;7.27;;;;;;;;;;5115897;28;20847;-58
2023/10/07 11:09:08;;;;;;;7.10;6.50;;;;;;;;;;5116339;28;20472;-58
2023/10/07 11:11:37;;;;;;;10.20;7.60;;;;;;;;;;5115933;28;20453;-58
2023/10/07 11:14:07;;;;;;;8.60;7.90;;;;;;;;;;5115757;28;20482;-58
2023/10/07 11:16:44;;;;;;;8.53;7.70;;;;;;;;;;5115480;28;20929;-58
2023/10/07 11:19:12;;;;;;;8.37;7.60;;;;;;;;;;5115700;28;20533;-58
2023/10/07 11:21:44;;;;;;;8.03;7.20;;;;;;;;;;5115503;28;20533;-58
2023/10/07 11:24:14;;;;;;;8.40;7.57;;;;;;;;;;5115552;28;20441;-58
2023/10/07 11:26:46;;;;;;;8.07;7.37;;;;;;;;;;5115624;28;20501;-58
2023/10/07 11:29:14;;;;;;;8.07;6.70;;;;;;;;;;5115390;28;20470;-58
2023/10/07 11:31:42;;;;;;;7.27;6.70;;;;;;;;;;5115298;28;20925;-57
2023/10/07 11:34:10;;;;;;;7.97;7.07;;;;;;;;;;5115205;28;20477;-58
2023/10/07 11:36:44;;;;;;;7.13;6.63;;;;;;;;;;5115601;28;20449;-58
2023/10/07 11:39:13;;;;;;;7.60;7.00;;;;;;;;;;5115292;28;20823;-58
2023/10/07 11:41:41;;;;;;;7.77;7.07;;;;;;;;;;5115131;28;20491;-58
2023/10/07 11:44:13;;;;;;;7.10;6.50;;;;;;;;;;5115165;28;20445;-58
2023/10/07 11:46:41;;;;;;;7.83;7.10;;;;;;;;;;5115003;28;20843;-58
2023/10/07 11:49:08;;;;;;;6.87;6.27;;;;;;;;;;5115249;28;20477;-59
2023/10/07 11:51:35;;;;;;;6.63;5.97;;;;;;;;;;5115176;28;20448;-58
2023/10/07 11:54:02;;;;;;;7.40;6.80;;;;;;;;;;5115021;28;20469;-58
2023/10/07 11:56:29;;;;;;;7.70;7.10;;;;;;;;;;5115001;28;20473;-58
2023/10/07 11:58:56;;;;;;;7.23;6.63;;;;;;;;;;5114837;28;20537;-59
2023/10/07 12:01:24;;;;;;;6.90;6.20;;;;;;;;;;5114804;28;20446;-58
2023/10/07 12:03:53;;;;;;;6.73;6.10;;;;;;;;;;5114936;28;20489;-58
2023/10/07 12:06:19;;;;;;;7.03;6.33;;;;;;;;;;5114826;28;20473;-58
2023/10/07 12:08:46;;;;;;;7.80;7.00;;;;;;;;;;5114748;28;20448;-58
2023/10/07 12:11:13;;;;;;;11.97;6.80;;;;;;;;;;5114693;28;20960;-58
2023/10/07 12:13:41;;;;;;;7.23;6.63;;;;;;;;;;5114415;28;20484;-58
2023/10/07 12:16:09;;;;;;;10.17;7.17;;;;;;;;;;5114670;28;20840;-58
2023/10/07 12:18:37;;;;;;;8.20;7.10;;;;;;;;;;5114558;28;20452;-58
2023/10/07 12:21:11;;;;;;;8.30;7.53;;;;;;;;;;5114591;28;20441;-58
2023/10/07 12:23:39;;;;;;;8.70;7.60;;;;;;;;;;5114447;28;20490;-58
2023/10/07 12:26:12;;;;;;;8.20;7.40;;;;;;;;;;5114251;28;20809;-58
2023/10/07 12:28:39;;;;;;;8.93;8.03;;;;;;;;;;5114224;28;20476;-58
2023/10/07 12:31:10;;;;;;;10.00;8.57;;;;;;;;;;5114355;28;20446;-58
2023/10/07 12:33:39;;;;;;;8.97;8.23;;;;;;;;;;5114208;28;20476;-58
2023/10/07 12:36:12;;;;;;;10.70;9.17;;;;;;;;;;5114207;28;20468;-58
2023/10/07 12:38:41;;;;;;;9.93;8.93;;;;;;;;;;5114011;28;20503;-58
2023/10/07 12:41:08;;;;;;;10.73;9.60;;;;;;;;;;5114094;28;20995;-58
2023/10/07 12:43:36;;;;;;;10.20;9.10;;;;;;;;;;5114094;28;20528;-58
2023/10/07 12:46:03;;;;;;;10.00;9.00;;;;;;;;;;5114114;28;20481;-58
2023/10/07 12:48:30;;;;;;;10.73;9.70;;;;;;;;;;5114056;28;20810;-58
2023/10/07 12:50:59;;;;;;;9.30;8.50;;;;;;;;;;5113452;28;20442;-58
2023/10/07 12:53:26;;;;;;;16.13;9.73;;;;;;;;;;5113738;28;20449;-58
2023/10/07 12:55:54;;;;;;;9.57;8.67;;;;;;;;;;5114003;28;20449;-58
2023/10/07 12:58:21;;;;;;;10.33;9.00;;;;;;;;;;5113914;28;20449;-57
2023/10/07 13:00:51;;;;;;;10.33;9.33;;;;;;;;;;5113874;28;20486;-58
2023/10/07 13:03:18;;;;;;;9.33;8.53;;;;;;;;;;5113540;28;20936;-58
2023/10/07 13:05:46;;;;;;;10.03;8.70;;;;;;;;;;5113480;28;20445;-58
2023/10/07 13:08:15;;;;;;;9.70;8.70;;;;;;;;;;5113525;28;20943;-58
2023/10/07 13:10:42;;;;;;;9.33;8.30;;;;;;;;;;5113930;28;20444;-58
2023/10/07 13:13:13;;;;;;;10.97;9.23;;;;;;;;;;5113671;28;20804;-58
2023/10/07 13:15:40;;;;;;;11.17;9.17;;;;;;;;;;5113478;28;20526;-58
2023/10/07 13:18:09;;;;;;;9.53;8.10;;;;;;;;;;5113494;28;20887;-58
2023/10/07 13:20:38;;;;;;;21.23;9.00;;;;;;;;;;5113369;28;20503;-58
2023/10/07 13:23:05;;;;;;;9.60;8.50;;;;;;;;;;5113505;28;20656;-58
2023/10/07 13:25:34;;;;;;;9.40;8.60;;;;;;;;;;5113369;28;20949;-58
2023/10/07 13:28:01;;;;;;;9.80;8.00;;;;;;;;;;5113203;28;20473;-58
2023/10/07 13:30:30;;;;;;;9.83;8.20;;;;;;;;;;5113413;28;20540;-58
2023/10/07 13:32:57;;;;;;;9.57;8.53;;;;;;;;;;5113752;28;20536;-58
2023/10/07 13:35:27;;;;;;;8.30;7.50;;;;;;;;;;5113341;28;20494;-58
2023/10/07 13:37:56;;;;;;;12.20;9.40;;;;;;;;;;5113274;28;20924;-58
2023/10/07 13:40:23;;;;;;;8.20;7.37;;;;;;;;;;5113359;28;20438;-58
2023/10/07 13:42:52;;;;;;;8.00;6.87;;;;;;;;;;5113083;28;20872;-58
2023/10/07 13:45:21;;;;;;;9.53;7.67;;;;;;;;;;5113146;28;20540;-58
2023/10/07 13:47:48;;;;;;;8.47;7.30;;;;;;;;;;5113414;28;21028;-58
2023/10/07 13:50:16;;;;;;;7.90;7.10;;;;;;;;;;5113352;28;20541;-58
2023/10/07 13:52:51;;;;;;;11.40;7.00;;;;;;;;;;5113312;28;20452;-58
2023/10/07 13:55:33;;;;;;;8.23;7.13;;;;;;;;;;5113121;28;20907;-58
2023/10/07 13:58:01;;;;;;;7.73;6.97;;;;;;;;;;5112971;28;20450;-58
2023/10/07 14:00:35;;;;;;;7.27;6.53;;;;;;;;;;5113246;28;20536;-58
2023/10/07 14:03:02;;;;;;;6.40;5.90;;;;;;;;;;5116006;28;20479;-58
2023/10/07 14:05:29;;;;;;;12.00;10.03;;;;;;;;;;5117125;28;20530;-58
2023/10/07 14:07:57;;;;;;;7.67;6.87;;;;;;;;;;5117083;28;20437;-58
2023/10/07 14:10:25;;;;;;;8.23;6.43;;;;;;;;;;5116871;28;20434;-57
2023/10/07 14:12:52;;;;;;;7.13;5.90;;;;;;;;;;5117118;28;20846;-59
2023/10/07 14:15:21;;;;;;;7.60;6.50;;;;;;;;;;5116756;28;20483;-58
2023/10/07 14:17:48;;;;;;;6.30;5.80;;;;;;;;;;5116963;28;20456;-58
2023/10/07 14:20:15;;;;;;;8.10;6.27;;;;;;;;;;5116872;28;20441;-58
2023/10/07 14:22:42;;;;;;;8.77;7.20;;;;;;;;;;5116771;28;20450;-59
2023/10/07 14:25:09;;;;;;;8.43;6.37;;;;;;;;;;5116724;28;20643;-58
2023/10/07 14:27:37;;;;;;;9.13;6.93;;;;;;;;;;5116801;28;20541;-58
2023/10/07 14:30:04;;;;;;;7.63;6.93;;;;;;;;;;5116573;28;20465;-58
2023/10/07 14:32:32;;;;;;;7.10;6.50;;;;;;;;;;5116682;28;20800;-58
2023/10/07 14:35:00;;;;;;;10.33;7.03;;;;;;;;;;5116498;28;20509;-58
2023/10/07 14:37:27;;;;;;;7.87;6.13;;;;;;;;;;5116365;28;20532;-58
2023/10/07 14:39:55;;;;;;;8.47;6.27;;;;;;;;;;5116624;28;20441;-58
2023/10/07 14:42:22;;;;;;;7.23;6.60;;;;;;;;;;5116360;28;20947;-58
2023/10/07 14:44:48;;;;;;;7.60;6.60;;;;;;;;;;5116276;28;21016;-58
2023/10/07 14:47:15;;;;;;;7.80;6.40;;;;;;;;;;5116348;28;20533;-58
2023/10/07 14:49:44;;;;;;;8.33;7.53;;;;;;;;;;5116366;28;20540;-58
2023/10/07 14:52:11;;;;;;;9.37;7.60;;;;;;;;;;5116195;28;20786;-58
2023/10/07 14:54:38;;;;;;;7.33;6.73;;;;;;;;;;5116132;28;21036;-58
2023/10/07 14:57:05;;;;;;;11.40;8.00;;;;;;;;;;5116227;28;20450;-58
2023/10/07 14:59:33;;;;;;;8.30;7.03;;;;;;;;;;5116274;28;20485;-58
2023/10/07 15:02:00;;;;;;;10.57;7.83;;;;;;;;;;5116084;28;20830;-58
2023/10/07 15:04:27;;;;;;;8.60;7.90;;;;;;;;;;5115965;28;20451;-58